createdAt,value
2022-11-24T00:00:52.916Z,55.45
2022-11-24T00:02:27.446Z,53.72
2022-11-24T00:04:08.503Z,55.30
2022-11-24T00:05:41.735Z,53.15
2022-11-24T00:07:16.138Z,53.00
2022-11-24T00:08:54.934Z,53.33
2022-11-24T00:13:19.240Z,55.17
2022-11-24T00:15:39.988Z,51.88
2022-11-24T00:17:50.457Z,51.72
2022-11-24T00:19:50.492Z,52.88
2022-11-24T00:22:14.018Z,51.17
2022-11-24T00:23:47.447Z,52.08
2022-11-24T00:27:49.225Z,51.42
2022-11-24T00:29:29.357Z,52.08
2022-11-24T00:30:53.670Z,51.10
2022-11-24T00:32:21.731Z,51.40
2022-11-24T00:33:47.314Z,53.20
2022-11-24T00:35:11.723Z,55.75
2022-11-24T00:36:36.738Z,53.85
2022-11-24T00:37:58.377Z,50.50
2022-11-24T00:39:20.643Z,41.38
2022-11-24T00:40:44.282Z,52.30
2022-11-24T00:42:06.812Z,54.25
2022-11-24T00:43:31.418Z,52.40
2022-11-24T00:44:57.222Z,51.55
2022-11-24T00:46:19.995Z,52.78
2022-11-24T00:47:48.368Z,51.60
2022-11-24T00:49:17.367Z,51.70
2022-11-24T00:50:38.881Z,52.17
2022-11-24T00:52:02.686Z,51.22
2022-11-24T00:53:32.319Z,52.08
2022-11-24T00:55:01.752Z,49.90
2022-11-24T00:56:25.436Z,50.47
2022-11-24T00:57:55.025Z,51.70
2022-11-24T00:59:47.997Z,49.65
2022-11-24T01:01:21.582Z,49.17
2022-11-24T01:02:52.234Z,52.33
2022-11-24T01:04:17.632Z,52.42
2022-11-24T01:05:44.419Z,55.25
2022-11-24T01:07:06.930Z,51.90
2022-11-24T01:08:32.865Z,50.03
2022-11-24T01:09:54.626Z,51.42
2022-11-24T01:11:24.304Z,53.58
2022-11-24T01:12:50.868Z,56.83
2022-11-24T01:14:22.939Z,58.88
2022-11-24T01:15:45.638Z,49.97
2022-11-24T01:17:09.993Z,50.80
2022-11-24T01:18:46.386Z,55.67
2022-11-24T01:24:14.746Z,50.25
2022-11-24T01:25:45.767Z,52.42
2022-11-24T01:27:09.870Z,51.78
2022-11-24T01:28:31.358Z,50.70
2022-11-24T01:29:56.970Z,51.22
2022-11-24T01:31:18.709Z,52.60
2022-11-24T01:32:47.886Z,50.20
2022-11-24T01:34:09.294Z,48.47
2022-11-24T01:35:32.036Z,51.38
2022-11-24T01:36:52.994Z,50.95
2022-11-24T01:38:18.631Z,52.95
2022-11-24T01:39:42.618Z,48.67
2022-11-24T01:41:05.265Z,51.17
2022-11-24T01:42:27.502Z,49.92
2022-11-24T01:43:49.284Z,48.67
2022-11-24T01:45:44.952Z,49.63
2022-11-24T01:47:21.317Z,47.55
2022-11-24T01:48:47.223Z,48.58
2022-11-24T01:50:15.959Z,48.63
2022-11-24T01:51:44.548Z,49.08
2022-11-24T01:53:07.168Z,49.45
2022-11-24T01:54:33.504Z,49.40
2022-11-24T01:55:55.469Z,52.17
2022-11-24T01:58:43.926Z,50.33
2022-11-24T02:00:09.512Z,49.78
2022-11-24T02:01:39.535Z,50.72
2022-11-24T02:03:03.239Z,52.55
2022-11-24T02:04:34.998Z,52.33
2022-11-24T02:06:02.973Z,54.35
2022-11-24T02:07:51.207Z,54.70
2022-11-24T02:09:52.791Z,51.60
2022-11-24T02:11:42.920Z,53.40
2022-11-24T02:13:53.388Z,53.15
2022-11-24T02:18:29.850Z,51.20
2022-11-24T02:23:21.545Z,53.38
2022-11-24T02:28:20.044Z,61.15
2022-11-24T02:30:16.743Z,60.33
2022-11-24T02:33:58.247Z,62.97
2022-11-24T02:36:19.836Z,65.45
2022-11-24T02:38:01.166Z,66.13
2022-11-24T02:39:40.793Z,64.60
2022-11-24T02:41:19.597Z,62.42
2022-11-24T02:43:09.495Z,62.07
2022-11-24T02:44:58.425Z,57.63
2022-11-24T02:46:19.878Z,55.10
2022-11-24T02:47:42.135Z,55.80
2022-11-24T02:49:17.799Z,55.85
2022-11-24T02:50:40.174Z,55.03
2022-11-24T02:52:03.021Z,55.95
2022-11-24T02:53:25.512Z,56.92
2022-11-24T02:54:49.844Z,54.75
2022-11-24T02:56:15.465Z,56.72
2022-11-24T02:57:37.175Z,55.85
2022-11-24T02:59:02.887Z,50.45
2022-11-24T03:00:24.413Z,56.10
2022-11-24T03:01:47.058Z,51.83
2022-11-24T03:03:11.417Z,51.85
2022-11-24T03:07:46.055Z,51.97
2022-11-24T03:09:08.615Z,51.38
2022-11-24T03:10:31.165Z,53.42
2022-11-24T03:11:55.276Z,53.25
2022-11-24T03:13:17.426Z,50.15
2022-11-24T03:14:40.786Z,51.90
2022-11-24T03:16:05.806Z,54.00
2022-11-24T03:17:30.714Z,52.72
2022-11-24T03:18:53.523Z,53.53
2022-11-24T03:20:22.553Z,56.33
2022-11-24T03:22:03.771Z,57.10
2022-11-24T03:23:30.431Z,52.97
2022-11-24T03:25:48.516Z,52.47
2022-11-24T03:27:19.323Z,50.15
2022-11-24T03:28:41.323Z,55.08
2022-11-24T03:30:03.504Z,61.28
2022-11-24T03:31:25.204Z,60.65
2022-11-24T03:32:52.333Z,55.53
2022-11-24T03:34:13.545Z,56.97
2022-11-24T03:35:35.909Z,57.90
2022-11-24T03:36:58.772Z,58.38
2022-11-24T03:38:20.171Z,58.70
2022-11-24T03:39:42.933Z,54.28
2022-11-24T03:41:04.954Z,51.83
2022-11-24T03:42:28.637Z,51.30
2022-11-24T03:45:49.318Z,46.78
2022-11-24T03:47:14.248Z,52.20
2022-11-24T03:48:36.270Z,48.15
2022-11-24T03:49:58.369Z,49.22
2022-11-24T03:56:53.551Z,37.03
2022-11-24T03:58:44.901Z,48.53
2022-11-24T04:00:24.237Z,44.72
2022-11-24T04:07:52.959Z,45.45
2022-11-24T04:23:53.453Z,46.72
2022-11-24T04:31:56.556Z,50.03
2022-11-24T04:36:58.309Z,51.33
2022-11-24T04:41:39.123Z,49.35
2022-11-24T04:58:31.586Z,51.95
2022-11-24T05:04:00.633Z,54.00
2022-11-24T05:11:19.996Z,54.53
2022-11-24T05:14:28.491Z,55.17
2022-11-24T05:17:14.494Z,55.13
2022-11-24T05:34:16.786Z,49.95
2022-11-24T06:16:33.741Z,52.00
2022-11-24T06:21:11.988Z,51.05
2022-11-24T06:22:39.631Z,48.15
2022-11-24T06:24:03.905Z,51.25
2022-11-24T06:25:26.589Z,50.95
2022-11-24T06:26:48.095Z,53.13
2022-11-24T06:28:18.122Z,54.03
2022-11-24T06:30:36.693Z,53.03
2022-11-24T06:32:06.748Z,51.97
2022-11-24T06:34:01.833Z,51.28
2022-11-24T06:36:04.212Z,52.35
2022-11-24T06:41:23.735Z,49.20
2022-11-24T06:42:59.919Z,49.70
2022-11-24T06:47:19.895Z,47.65
2022-11-24T06:49:01.738Z,51.10
2022-11-24T06:50:42.337Z,51.25
2022-11-24T06:52:28.423Z,50.15
2022-11-24T06:54:00.800Z,49.60
2022-11-24T06:55:33.909Z,51.38
2022-11-24T06:56:58.752Z,51.00
2022-11-24T06:58:21.508Z,49.55
2022-11-24T06:59:44.655Z,49.55
2022-11-24T07:01:07.905Z,48.60
2022-11-24T07:02:34.548Z,49.85
2022-11-24T07:03:58.586Z,51.00
2022-11-24T07:05:22.139Z,48.85
2022-11-24T07:06:44.702Z,49.20
2022-11-24T07:08:07.238Z,49.22
2022-11-24T07:09:29.182Z,51.08
2022-11-24T07:10:53.390Z,48.90
2022-11-24T07:12:18.092Z,48.30
2022-11-24T07:13:59.659Z,47.10
2022-11-24T07:15:22.316Z,47.22
2022-11-24T07:16:45.019Z,49.67
2022-11-24T07:18:12.611Z,45.40
2022-11-24T07:19:34.500Z,47.40
2022-11-24T07:20:56.888Z,46.72
2022-11-24T07:22:19.306Z,46.35
2022-11-24T07:23:48.539Z,49.75
2022-11-24T07:25:14.718Z,50.70
2022-11-24T07:26:38.414Z,47.53
2022-11-24T07:28:00.999Z,50.08
2022-11-24T07:29:22.839Z,49.42
2022-11-24T07:30:45.178Z,49.22
2022-11-24T07:32:13.778Z,51.50
2022-11-24T07:33:36.308Z,50.40
2022-11-24T07:34:57.731Z,50.58
2022-11-24T07:36:20.808Z,53.55
2022-11-24T07:37:50.849Z,48.85
2022-11-24T07:39:15.275Z,50.17
2022-11-24T07:40:39.363Z,50.08
2022-11-24T07:42:05.417Z,51.08
2022-11-24T07:43:27.697Z,50.67
2022-11-24T07:44:49.780Z,49.05
2022-11-24T07:46:51.792Z,51.67
2022-11-24T07:48:19.803Z,48.53
2022-11-24T07:49:41.808Z,48.95
2022-11-24T07:51:04.638Z,53.92
2022-11-24T07:52:27.058Z,51.63
2022-11-24T07:53:49.421Z,50.80
2022-11-24T07:55:11.858Z,51.50
2022-11-24T07:56:33.825Z,54.58
2022-11-24T07:58:00.706Z,53.03
2022-11-24T07:59:22.870Z,50.60
2022-11-24T08:00:45.700Z,52.42
2022-11-24T08:02:08.137Z,49.85
2022-11-24T08:03:30.306Z,52.45
2022-11-24T08:04:52.197Z,51.25
2022-11-24T08:06:31.884Z,51.58
2022-11-24T08:08:06.327Z,51.92
2022-11-24T08:09:46.528Z,50.55
2022-11-24T08:11:10.690Z,51.58
2022-11-24T08:12:33.159Z,53.70
2022-11-24T08:13:57.243Z,56.25
2022-11-24T08:15:20.024Z,52.58
2022-11-24T08:16:49.994Z,55.13
2022-11-24T08:18:14.280Z,52.65
2022-11-24T08:26:05.324Z,51.90
2022-11-24T08:27:27.890Z,51.55
2022-11-24T08:28:54.278Z,52.33
2022-11-24T08:30:18.460Z,54.20
2022-11-24T08:31:46.786Z,57.03
2022-11-24T08:33:09.451Z,57.38
2022-11-24T08:34:35.156Z,56.20
2022-11-24T08:35:58.021Z,55.92
2022-11-24T08:37:21.615Z,55.17
2022-11-24T08:38:44.906Z,54.20
2022-11-24T08:40:08.316Z,52.88
2022-11-24T08:41:31.532Z,54.42
2022-11-24T08:42:53.763Z,52.65
2022-11-24T08:44:18.339Z,53.55
2022-11-24T08:45:54.668Z,52.60
2022-11-24T08:47:19.992Z,49.08
2022-11-24T08:48:45.254Z,52.35
2022-11-24T08:50:08.244Z,49.00
2022-11-24T08:51:31.244Z,51.95
2022-11-24T08:52:55.746Z,53.35
2022-11-24T08:54:21.899Z,52.78
2022-11-24T08:55:44.179Z,53.70
2022-11-24T08:57:06.449Z,55.38
2022-11-24T08:58:29.586Z,53.42
2022-11-24T08:59:51.552Z,53.55
2022-11-24T09:01:17.998Z,54.05
2022-11-24T09:02:40.229Z,53.88
2022-11-24T09:04:02.580Z,55.78
2022-11-24T09:05:50.569Z,55.65
2022-11-24T09:07:07.562Z,54.78
2022-11-24T09:08:31.578Z,52.25
2022-11-24T09:09:53.762Z,50.25
2022-11-24T09:12:38.776Z,53.58
2022-11-24T09:14:08.627Z,52.95
2022-11-24T09:15:39.268Z,53.75
2022-11-24T09:17:03.368Z,55.65
2022-11-24T09:18:30.689Z,51.58
2022-11-24T09:20:07.516Z,53.97
2022-11-24T09:21:36.383Z,55.55
2022-11-24T09:22:58.714Z,54.15
2022-11-24T09:24:22.256Z,55.55
2022-11-24T09:25:49.437Z,54.50
2022-11-24T09:27:11.279Z,59.05
2022-11-24T09:28:32.680Z,59.03
2022-11-24T09:29:57.776Z,57.00
2022-11-24T09:31:20.407Z,57.28
2022-11-24T09:32:43.712Z,56.10
2022-11-24T09:34:07.668Z,55.20
2022-11-24T09:35:29.515Z,53.92
2022-11-24T09:36:51.875Z,52.72
2022-11-24T09:38:14.171Z,52.88
2022-11-24T09:39:36.364Z,51.83
2022-11-24T09:41:13.030Z,50.53
2022-11-24T09:42:49.299Z,50.38
2022-11-24T09:45:05.437Z,51.05
2022-11-24T09:46:34.704Z,49.00
2022-11-24T09:48:02.261Z,50.17
2022-11-24T09:49:32.581Z,51.92
2022-11-24T09:50:55.686Z,51.50
2022-11-24T09:52:34.584Z,51.63
2022-11-24T09:54:07.213Z,51.55
2022-11-24T09:55:46.066Z,48.92
2022-11-24T09:57:13.705Z,49.20
2022-11-24T09:58:43.656Z,54.50
2022-11-24T10:02:03.566Z,56.42
2022-11-24T10:08:30.195Z,52.05
2022-11-24T10:12:54.473Z,51.88
2022-11-24T10:14:44.759Z,50.22
2022-11-24T10:16:16.929Z,50.55
2022-11-24T10:17:57.611Z,54.72
2022-11-24T10:19:38.310Z,57.10
2022-11-24T10:21:32.989Z,58.60
2022-11-24T10:23:13.041Z,56.10
2022-11-24T10:25:20.836Z,50.28
2022-11-24T10:28:23.797Z,48.97
2022-11-24T10:33:30.853Z,52.63
2022-11-24T10:35:12.976Z,51.63
2022-11-24T10:36:45.431Z,51.85
2022-11-24T10:38:31.756Z,52.33
2022-11-24T10:40:00.720Z,52.30
2022-11-24T10:41:34.508Z,49.95
2022-11-24T10:42:59.577Z,49.85
2022-11-24T10:44:23.656Z,49.58
2022-11-24T10:45:47.396Z,51.03
2022-11-24T10:47:26.795Z,52.80
2022-11-24T10:49:11.336Z,51.25
2022-11-24T10:50:42.162Z,51.25
2022-11-24T10:52:11.523Z,49.72
2022-11-24T10:53:43.661Z,49.28
2022-11-24T10:55:09.891Z,50.60
2022-11-24T10:56:52.636Z,52.25
2022-11-24T10:58:21.585Z,48.95
2022-11-24T11:02:41.635Z,48.30
2022-11-24T11:04:18.979Z,49.97
2022-11-24T11:05:55.873Z,48.60
2022-11-24T11:07:36.985Z,49.00
2022-11-24T11:09:32.500Z,50.63
2022-11-24T11:11:53.169Z,47.85
2022-11-24T11:13:38.271Z,50.25
2022-11-24T11:15:23.186Z,48.80
2022-11-24T11:16:51.014Z,52.17
2022-11-24T11:18:17.981Z,50.72
2022-11-24T11:19:50.262Z,48.97
2022-11-24T11:21:31.420Z,51.22
2022-11-24T11:22:57.948Z,53.30
2022-11-24T11:24:22.434Z,53.17
2022-11-24T11:25:52.095Z,52.53
2022-11-24T11:31:20.301Z,51.85
2022-11-24T11:38:47.104Z,54.58
2022-11-24T11:40:47.819Z,52.63
2022-11-24T11:42:53.763Z,54.83
2022-11-24T11:44:37.812Z,53.03
2022-11-24T11:46:10.129Z,50.92
2022-11-24T11:47:42.810Z,51.70
2022-11-24T11:49:08.968Z,54.10
2022-11-24T11:51:06.786Z,54.83
2022-11-24T11:53:13.633Z,53.67
2022-11-24T11:55:35.880Z,50.00
2022-11-24T11:57:18.862Z,51.65
2022-11-24T11:59:13.635Z,52.55
2022-11-24T12:00:44.474Z,50.17
2022-11-24T12:02:51.660Z,51.78
2022-11-24T12:08:31.333Z,51.38
2022-11-24T12:15:34.157Z,52.38
2022-11-24T12:17:05.661Z,52.97
2022-11-24T12:18:58.727Z,52.60
2022-11-24T12:21:12.719Z,50.17
2022-11-24T12:22:45.232Z,49.13
2022-11-24T12:24:24.813Z,54.25
2022-11-24T12:28:34.881Z,49.58
2022-11-24T12:30:11.288Z,51.92
2022-11-24T12:31:56.550Z,52.60
2022-11-24T12:34:18.830Z,51.50
2022-11-24T12:35:54.986Z,51.05
2022-11-24T12:38:20.699Z,52.25
2022-11-24T12:40:04.820Z,51.47
2022-11-24T12:56:52.857Z,53.17
2022-11-24T12:58:30.670Z,49.47
2022-11-24T13:00:18.501Z,52.40
2022-11-24T13:02:21.977Z,51.55
2022-11-24T13:04:07.431Z,50.30
2022-11-24T13:05:56.109Z,51.65
2022-11-24T13:07:23.213Z,52.60
2022-11-24T13:09:02.959Z,54.38
2022-11-24T13:10:56.343Z,53.67
2022-11-24T13:12:38.783Z,52.92
2022-11-24T13:14:49.106Z,54.00
2022-11-24T13:16:36.303Z,52.60
2022-11-24T13:18:12.453Z,52.47
2022-11-24T13:20:45.056Z,51.00
2022-11-24T13:22:56.368Z,52.45
2022-11-24T13:24:36.141Z,50.53
2022-11-24T13:26:31.427Z,53.05
2022-11-24T13:28:00.105Z,54.70
2022-11-24T13:29:43.519Z,51.65
2022-11-24T13:31:13.439Z,52.60
2022-11-24T13:33:08.230Z,51.55
2022-11-24T13:35:32.829Z,51.75
2022-11-24T13:39:41.169Z,49.65
2022-11-24T13:41:06.264Z,58.05
2022-11-24T13:43:04.156Z,56.92
2022-11-24T13:45:08.011Z,57.38
2022-11-24T13:47:27.153Z,56.65
2022-11-24T13:52:41.956Z,56.60
2022-11-24T14:01:31.859Z,50.25
2022-11-24T14:04:31.884Z,49.88
2022-11-24T14:06:25.177Z,47.28
2022-11-24T14:08:59.690Z,49.58
2022-11-24T14:11:31.446Z,47.20
2022-11-24T14:13:41.887Z,50.75
2022-11-24T14:16:01.223Z,48.50
2022-11-24T14:17:42.207Z,51.55
2022-11-24T14:19:13.242Z,58.17
2022-11-24T14:20:36.488Z,65.25
2022-11-24T14:21:59.144Z,59.33
2022-11-24T14:23:31.694Z,63.60
2022-11-24T14:25:07.669Z,62.15
2022-11-24T14:26:44.278Z,61.45
2022-11-24T14:28:31.741Z,66.47
2022-11-24T14:30:08.539Z,64.30
2022-11-24T14:31:36.577Z,67.40
2022-11-24T14:36:26.499Z,61.00
2022-11-24T14:37:49.292Z,58.28
2022-11-24T14:39:15.823Z,61.05
2022-11-24T14:40:46.589Z,61.53
2022-11-24T14:42:20.161Z,62.08
2022-11-24T14:43:43.092Z,62.22
2022-11-24T14:45:11.295Z,74.18
2022-11-24T14:46:36.166Z,74.53
2022-11-24T14:48:03.821Z,67.97
2022-11-24T14:49:36.090Z,63.50
2022-11-24T14:51:15.163Z,67.57
2022-11-24T14:52:46.667Z,61.85
2022-11-24T14:54:28.183Z,64.75
2022-11-24T14:56:21.505Z,60.95
2022-11-24T14:57:48.521Z,59.72
2022-11-24T14:59:26.610Z,57.58
2022-11-24T15:01:11.229Z,59.08
2022-11-24T15:02:44.413Z,59.17
2022-11-24T15:04:32.339Z,57.75
2022-11-24T15:06:04.617Z,57.13
2022-11-24T15:07:30.255Z,57.70
2022-11-24T15:08:52.957Z,62.05
2022-11-24T15:10:35.515Z,61.35
2022-11-24T15:12:48.406Z,60.30
2022-11-24T15:14:39.427Z,59.73
2022-11-24T15:16:04.952Z,56.97
2022-11-24T15:17:40.415Z,60.58
2022-11-24T15:19:12.090Z,61.45
2022-11-24T15:20:51.112Z,61.53
2022-11-24T15:22:38.171Z,60.20
2022-11-24T15:24:08.958Z,148.25
2022-11-24T15:25:37.498Z,176.85
2022-11-24T15:27:03.197Z,220.90
2022-11-24T15:28:29.842Z,130.93
2022-11-24T15:29:52.144Z,85.22
2022-11-24T15:31:30.960Z,78.03
2022-11-24T15:32:56.878Z,70.72
2022-11-24T15:36:35.206Z,65.32
2022-11-24T15:38:02.643Z,68.22
2022-11-24T15:39:24.999Z,66.90
2022-11-24T15:40:50.188Z,69.65
2022-11-24T15:42:14.531Z,68.13
2022-11-24T15:43:57.611Z,69.22
2022-11-24T15:45:24.089Z,64.93
2022-11-24T15:46:46.336Z,68.75
2022-11-24T15:48:12.372Z,67.15
2022-11-24T15:49:41.371Z,68.05
2022-11-24T15:51:07.486Z,71.07
2022-11-24T15:52:29.826Z,70.93
2022-11-24T15:54:00.401Z,70.90
2022-11-24T15:55:25.549Z,68.65
2022-11-24T15:56:50.509Z,69.55
2022-11-24T15:58:14.292Z,67.65
2022-11-24T15:59:39.372Z,73.55
2022-11-24T16:01:01.917Z,72.18
2022-11-24T16:02:29.053Z,76.38
2022-11-24T16:03:51.914Z,75.30
2022-11-24T16:05:27.304Z,71.90
2022-11-24T16:06:58.703Z,76.20
2022-11-24T16:08:21.179Z,73.60
2022-11-24T16:09:44.962Z,75.28
2022-11-24T16:11:06.467Z,73.00
2022-11-24T16:12:32.206Z,73.78
2022-11-24T16:13:54.934Z,72.50
2022-11-24T16:15:17.534Z,71.85
2022-11-24T16:16:41.183Z,73.63
2022-11-24T16:18:11.692Z,71.03
2022-11-24T16:19:41.675Z,75.38
2022-11-24T16:21:27.148Z,73.28
2022-11-24T16:23:07.057Z,75.50
2022-11-24T16:24:38.677Z,75.57
2022-11-24T16:26:09.154Z,77.30
2022-11-24T16:27:35.894Z,76.57
2022-11-24T16:29:04.584Z,78.25
2022-11-24T16:30:29.474Z,76.55
2022-11-24T16:31:59.332Z,77.85
2022-11-24T16:33:26.049Z,81.38
2022-11-24T16:34:50.164Z,81.18
2022-11-24T16:36:21.963Z,77.97
2022-11-24T16:37:51.859Z,79.35
2022-11-24T16:39:31.552Z,80.10
2022-11-24T16:48:37.246Z,87.15
2022-11-24T17:07:22.606Z,73.22
2022-11-24T17:08:55.274Z,72.65
2022-11-24T17:11:04.558Z,76.97
2022-11-24T17:13:03.451Z,72.30
2022-11-24T17:16:01.340Z,74.18
2022-11-24T17:17:31.316Z,77.50
2022-11-24T17:19:02.036Z,82.50
2022-11-24T17:20:47.757Z,78.03
2022-11-24T17:22:18.031Z,79.32
2022-11-24T17:23:46.249Z,81.63
2022-11-24T17:25:11.546Z,83.22
2022-11-24T17:26:36.092Z,80.57
2022-11-24T17:29:01.033Z,86.30
2022-11-24T17:34:12.812Z,84.65
2022-11-24T17:36:04.894Z,83.32
2022-11-24T17:37:32.370Z,78.13
2022-11-24T17:38:54.241Z,83.07
2022-11-24T17:40:28.271Z,86.38
2022-11-24T17:43:36.888Z,78.88
2022-11-24T17:45:02.052Z,81.43
2022-11-24T17:47:39.906Z,76.30
2022-11-24T17:52:43.473Z,81.70
2022-11-24T18:00:09.411Z,82.53
2022-11-24T18:01:39.660Z,84.60
2022-11-24T18:03:21.612Z,88.40
2022-11-24T18:04:47.191Z,89.30
2022-11-24T18:06:18.527Z,92.88
2022-11-24T18:07:43.378Z,94.43
2022-11-24T18:09:09.470Z,97.20
2022-11-24T18:10:38.770Z,99.07
2022-11-24T18:12:17.046Z,111.97
2022-11-24T18:13:56.603Z,100.97
2022-11-24T18:15:25.585Z,104.82
2022-11-24T18:16:53.344Z,103.85
2022-11-24T18:18:14.945Z,100.30
2022-11-24T18:22:50.077Z,95.45
2022-11-24T18:24:24.227Z,89.10
2022-11-24T18:31:25.375Z,70.20
2022-11-24T18:33:24.680Z,67.43
2022-11-24T18:35:21.476Z,70.72
2022-11-24T18:36:53.634Z,67.32
2022-11-24T18:38:36.039Z,67.63
2022-11-24T18:40:16.229Z,66.65
2022-11-24T18:41:58.325Z,65.38
2022-11-24T18:43:20.971Z,68.13
2022-11-24T18:44:55.838Z,70.30
2022-11-24T18:47:24.879Z,66.95
2022-11-24T18:49:16.312Z,64.43
2022-11-24T18:51:15.079Z,62.40
2022-11-24T18:52:40.578Z,64.75
2022-11-24T18:54:06.946Z,68.22
2022-11-24T18:55:30.792Z,68.60
2022-11-24T18:56:53.386Z,63.88
2022-11-24T18:58:16.136Z,69.43
2022-11-24T18:59:38.496Z,66.65
2022-11-24T19:01:07.661Z,67.38
2022-11-24T19:02:30.254Z,69.07
2022-11-24T19:03:57.800Z,70.10
2022-11-24T19:05:27.531Z,75.28
2022-11-24T19:06:50.304Z,74.63
2022-11-24T19:08:12.584Z,70.95
2022-11-24T19:09:34.631Z,71.22
2022-11-24T19:10:58.128Z,73.15
2022-11-24T19:12:20.319Z,75.20
2022-11-24T19:13:42.417Z,76.22
2022-11-24T19:15:05.005Z,71.38
2022-11-24T19:16:27.877Z,69.88
2022-11-24T19:17:50.429Z,68.25
2022-11-24T19:20:38.319Z,64.82
2022-11-24T19:22:03.129Z,67.45
2022-11-24T19:23:25.533Z,66.70
2022-11-24T19:24:47.917Z,71.13
2022-11-24T19:27:35.479Z,67.95
2022-11-24T19:28:58.189Z,71.10
2022-11-24T19:30:20.923Z,71.55
2022-11-24T19:31:44.067Z,65.35
2022-11-24T19:33:08.565Z,67.28
2022-11-24T19:34:30.905Z,65.72
2022-11-24T19:36:00.872Z,68.03
2022-11-24T19:37:23.658Z,69.80
2022-11-24T19:38:51.351Z,86.53
2022-11-24T19:40:14.701Z,83.20
2022-11-24T19:41:38.303Z,84.25
2022-11-24T19:43:00.317Z,82.45
2022-11-24T19:44:25.571Z,81.22
2022-11-24T19:45:47.664Z,84.50
2022-11-24T19:47:11.755Z,83.97
2022-11-24T19:48:34.721Z,85.10
2022-11-24T19:49:57.215Z,80.30
2022-11-24T19:51:21.349Z,82.93
2022-11-24T19:53:01.626Z,77.55
2022-11-24T19:54:24.947Z,76.63
2022-11-24T19:55:48.986Z,76.03
2022-11-24T19:57:12.816Z,76.18
2022-11-24T19:58:36.823Z,72.47
2022-11-24T19:59:59.558Z,72.78
2022-11-24T20:01:23.374Z,75.00
2022-11-24T20:02:45.808Z,73.75
2022-11-24T20:04:10.504Z,75.57
2022-11-24T20:05:35.378Z,78.93
2022-11-24T20:07:00.413Z,80.72
2022-11-24T20:08:23.681Z,79.45
2022-11-24T20:09:47.483Z,84.07
2022-11-24T20:11:11.445Z,85.45
2022-11-24T20:12:35.655Z,82.63
2022-11-24T20:13:58.996Z,82.18
2022-11-24T20:15:24.038Z,83.78
2022-11-24T20:16:47.948Z,83.72
2022-11-24T20:18:10.698Z,85.25
2022-11-24T20:19:32.891Z,83.07
2022-11-24T20:20:55.154Z,79.93
2022-11-24T20:22:17.474Z,81.40
2022-11-24T20:23:46.360Z,86.28
2022-11-24T20:25:16.584Z,85.85
2022-11-24T20:26:43.956Z,89.30
2022-11-24T20:28:08.391Z,88.85
2022-11-24T20:29:34.426Z,89.13
2022-11-24T20:31:15.348Z,88.00
2022-11-24T20:32:40.667Z,92.80
2022-11-24T20:34:04.354Z,93.78
2022-11-24T20:35:26.348Z,95.88
2022-11-24T20:36:49.666Z,94.30
2022-11-24T20:38:11.683Z,94.50
2022-11-24T20:39:33.588Z,93.97
2022-11-24T20:41:08.953Z,93.40
2022-11-24T20:42:32.848Z,90.18
2022-11-24T20:44:08.722Z,86.80
2022-11-24T20:45:37.453Z,91.20
2022-11-24T20:47:01.427Z,88.72
2022-11-24T20:48:22.642Z,86.95
2022-11-24T20:49:47.791Z,86.97
2022-11-24T20:51:10.879Z,85.50
2022-11-24T20:52:35.138Z,84.50
2022-11-24T20:54:02.716Z,84.20
2022-11-24T20:55:25.183Z,85.30
2022-11-24T20:58:28.498Z,85.65
2022-11-24T21:00:10.403Z,81.38
2022-11-24T21:01:42.771Z,86.07
2022-11-24T21:03:14.075Z,87.28
2022-11-24T21:04:47.711Z,88.25
2022-11-24T21:06:22.575Z,86.43
2022-11-24T21:07:45.221Z,85.82
2022-11-24T21:09:14.097Z,85.13
2022-11-24T21:10:50.911Z,85.50
2022-11-24T21:12:23.696Z,87.72
2022-11-24T21:13:47.873Z,84.18
2022-11-24T21:15:39.493Z,84.55
2022-11-24T21:17:05.296Z,83.55
2022-11-24T21:18:56.842Z,82.65
2022-11-24T21:20:29.826Z,85.78
2022-11-24T21:22:07.866Z,81.57
2022-11-24T21:23:30.645Z,82.03
2022-11-24T21:25:36.056Z,79.82
2022-11-24T21:27:24.494Z,85.10
2022-11-24T21:29:01.725Z,91.03
2022-11-24T21:30:28.222Z,86.40
2022-11-24T21:32:15.917Z,86.25
2022-11-24T21:33:58.034Z,80.72
2022-11-24T21:35:26.820Z,75.07
2022-11-24T21:36:52.614Z,75.38
2022-11-24T21:38:15.386Z,69.18
2022-11-24T21:39:37.831Z,69.55
2022-11-24T21:41:00.943Z,63.90
2022-11-24T21:42:26.214Z,60.60
2022-11-24T21:43:51.945Z,61.20
2022-11-24T21:45:16.573Z,61.42
2022-11-24T21:46:45.687Z,62.42
2022-11-24T21:48:10.042Z,61.22
2022-11-24T21:49:35.685Z,58.70
2022-11-24T21:51:06.124Z,56.97
2022-11-24T21:52:29.171Z,59.42
2022-11-24T21:53:51.612Z,57.40
2022-11-24T21:55:32.206Z,59.03
2022-11-24T21:56:55.887Z,56.22
2022-11-24T21:58:26.999Z,57.70
2022-11-24T22:00:06.142Z,56.30
2022-11-24T22:01:34.885Z,57.53
2022-11-24T22:02:57.525Z,56.30
2022-11-24T22:04:19.441Z,58.38
2022-11-24T22:05:41.841Z,57.60
2022-11-24T22:07:10.172Z,56.30
2022-11-24T22:08:32.609Z,56.70
2022-11-24T22:10:02.046Z,56.70
2022-11-24T22:11:33.001Z,56.25
2022-11-24T22:12:58.110Z,55.75
2022-11-24T22:14:22.921Z,55.30
2022-11-24T22:15:48.319Z,55.92
2022-11-24T22:17:16.979Z,57.55
2022-11-24T22:18:48.173Z,57.92
2022-11-24T22:20:13.499Z,55.90
2022-11-24T22:21:39.930Z,55.25
2022-11-24T22:23:00.820Z,54.17
2022-11-24T22:24:28.185Z,57.05
2022-11-24T22:25:52.008Z,55.97
2022-11-24T22:27:13.847Z,54.28
2022-11-24T22:28:37.212Z,58.80
2022-11-24T22:29:59.539Z,54.05
2022-11-24T22:31:22.775Z,54.60
2022-11-24T22:32:44.870Z,55.47
2022-11-24T22:34:08.888Z,59.15
2022-11-24T22:35:29.789Z,56.50
2022-11-24T22:36:51.758Z,57.30
2022-11-24T22:38:14.011Z,59.30
2022-11-24T22:41:02.878Z,52.58
2022-11-24T22:42:27.631Z,58.72
2022-11-24T22:43:50.455Z,56.92
2022-11-24T22:45:12.909Z,57.30
2022-11-24T22:46:35.370Z,57.75
2022-11-24T22:47:58.404Z,61.03
2022-11-24T22:49:21.818Z,59.55
2022-11-24T22:50:42.937Z,59.13
2022-11-24T22:52:05.481Z,62.50
2022-11-24T22:53:26.733Z,61.28
2022-11-24T23:01:37.810Z,59.17
2022-11-24T23:03:01.813Z,57.70
2022-11-24T23:04:25.630Z,57.13
2022-11-24T23:05:46.855Z,59.80
2022-11-24T23:07:09.930Z,58.40
2022-11-24T23:08:33.338Z,53.75
2022-11-24T23:09:58.444Z,53.30
2022-11-24T23:11:31.686Z,55.33
2022-11-24T23:12:57.804Z,53.55
2022-11-24T23:14:20.882Z,53.50
2022-11-24T23:15:43.345Z,54.90
2022-11-24T23:17:10.167Z,53.40
2022-11-24T23:18:40.996Z,50.80
2022-11-24T23:20:08.816Z,53.22
2022-11-24T23:21:33.679Z,53.10
2022-11-24T23:23:00.018Z,57.78
2022-11-24T23:24:22.379Z,55.95
2022-11-24T23:25:43.386Z,53.60
2022-11-24T23:27:06.364Z,51.10
2022-11-24T23:31:09.353Z,53.60
2022-11-24T23:32:30.735Z,54.25
2022-11-24T23:33:55.724Z,60.20
2022-11-24T23:35:27.806Z,51.45
2022-11-24T23:36:50.217Z,52.28
2022-11-24T23:40:29.965Z,46.88
2022-11-24T23:41:51.197Z,46.33
2022-11-24T23:43:14.273Z,47.90
2022-11-24T23:44:36.745Z,49.13
2022-11-24T23:46:03.521Z,49.92
2022-11-24T23:47:25.621Z,47.33
2022-11-24T23:48:47.516Z,47.70
2022-11-24T23:50:10.389Z,45.67
2022-11-24T23:51:35.231Z,41.78
2022-11-24T23:52:56.390Z,43.22
2022-11-24T23:54:18.663Z,32.75
2022-11-24T23:55:39.690Z,44.03
2022-11-24T23:57:02.115Z,44.70
2022-11-24T23:59:45.851Z,40.42
